Time;durP1;ratioP1;P1;durP2;ratioP2;P2;SDS_P1;SDS_P2;PMS_P1;PMS_P2;Temp;Humidity;BMP_temperature;BMP_pressure;BME280_temperature;BME280_humidity;BME280_pressure;Samples;Min_cycle;Max_cycle;Signal;HPM_P1;HPM_P2
2021/01/19 00:00:58;;;;;;;6.43;5.70;;;;;;;0.67;75.41;101252.63;6161125;28;20203;-73
2021/01/19 00:04:02;;;;;;;9.53;6.20;;;;;;;0.68;75.99;101254.34;6162866;28;20217;-72
2021/01/19 00:07:05;;;;;;;6.67;5.97;;;;;;;0.48;76.95;101255.34;6149429;28;20909;-73
2021/01/19 00:10:11;;;;;;;7.77;6.03;;;;;;;0.61;77.83;101251.41;6149543;28;20245;-73
2021/01/19 00:13:19;;;;;;;6.93;5.93;;;;;;;0.79;76.00;101238.09;6150806;28;20203;-72
2021/01/19 00:16:24;;;;;;;8.00;6.17;;;;;;;0.60;77.65;101238.09;6161515;28;20194;-72
2021/01/19 00:19:27;;;;;;;9.17;6.40;;;;;;;0.65;77.60;101238.50;6161916;28;20608;-72
2021/01/19 00:22:32;;;;;;;8.43;6.47;;;;;;;0.49;77.02;101248.97;6155828;28;20198;-73
2021/01/19 00:25:36;;;;;;;7.27;6.20;;;;;;;0.53;78.30;101236.97;6163128;28;20641;-72
2021/01/19 00:28:40;;;;;;;9.33;6.03;;;;;;;0.69;77.66;101237.25;6155448;28;20718;-73
2021/01/19 00:31:43;;;;;;;8.47;6.33;;;;;;;0.80;76.81;101234.38;6166006;28;20197;-73
2021/01/19 00:34:47;;;;;;;6.93;6.10;;;;;;;0.86;75.74;101239.19;6164576;28;20237;-73
2021/01/19 00:37:50;;;;;;;8.73;6.13;;;;;;;0.78;77.01;101225.63;6143344;28;20288;-73
2021/01/19 00:40:54;;;;;;;11.13;6.37;;;;;;;0.81;75.81;101230.72;6148665;28;20227;-73
2021/01/19 00:43:58;;;;;;;8.23;6.17;;;;;;;0.80;76.19;101229.00;6149512;28;20206;-74
2021/01/19 00:47:04;;;;;;;10.47;6.80;;;;;;;0.71;76.25;101224.53;6157630;28;20217;-72
2021/01/19 00:50:08;;;;;;;6.57;5.87;;;;;;;0.54;76.67;101222.56;6160641;28;20205;-72
2021/01/19 00:53:13;;;;;;;10.57;6.80;;;;;;;0.39;76.99;101218.59;6134677;28;20202;-73
2021/01/19 00:56:16;;;;;;;10.13;6.27;;;;;;;0.49;77.41;101230.19;6143794;28;20602;-72
2021/01/19 00:59:20;;;;;;;11.90;7.10;;;;;;;0.47;77.52;101230.34;6155477;28;20652;-74
2021/01/19 01:02:24;;;;;;;12.83;6.87;;;;;;;0.44;77.47;101211.81;6150810;28;20578;-72
2021/01/19 01:05:27;;;;;;;8.83;6.57;;;;;;;0.46;77.04;101215.22;6161439;28;20628;-72
2021/01/19 01:08:30;;;;;;;9.30;6.47;;;;;;;0.05;77.01;101193.22;6149733;28;20235;-72
2021/01/19 01:11:39;;;;;;;10.70;6.70;;;;;;;0.28;77.83;101213.41;6155153;28;20199;-72
2021/01/19 01:14:42;;;;;;;10.90;6.70;;;;;;;0.50;77.41;101210.41;6151403;28;20305;-73
2021/01/19 01:17:46;;;;;;;13.10;7.23;;;;;;;0.50;77.74;101210.41;6160386;28;20214;-73
2021/01/19 01:20:49;;;;;;;12.03;7.20;;;;;;;0.51;76.86;101217.50;6154442;28;20590;-73
2021/01/19 01:23:52;;;;;;;12.67;7.50;;;;;;;0.62;77.41;101195.84;6149628;28;20211;-73
2021/01/19 01:26:55;;;;;;;15.37;7.03;;;;;;;0.77;76.41;101199.75;6158363;28;20205;-73
2021/01/19 01:29:59;;;;;;;10.03;6.93;;;;;;;0.76;76.68;101195.38;6161707;28;20202;-73
2021/01/19 01:33:03;;;;;;;11.47;7.07;;;;;;;0.77;76.05;101197.06;6161749;28;20202;-75
2021/01/19 01:36:07;;;;;;;13.53;7.53;;;;;;;0.73;76.60;101194.81;6154620;28;20609;-73
2021/01/19 01:39:10;;;;;;;17.50;8.87;;;;;;;0.80;75.41;101188.72;6147880;28;20210;-73
2021/01/19 01:42:19;;;;;;;14.60;8.17;;;;;;;0.74;76.15;101196.53;6146159;28;20489;-73
2021/01/19 01:45:24;;;;;;;15.93;8.27;;;;;;;0.53;77.09;101194.03;6150351;28;20209;-73
2021/01/19 01:48:29;;;;;;;19.00;9.10;;;;;;;0.68;76.88;101194.41;6160218;28;20214;-73
2021/01/19 01:51:33;;;;;;;17.00;10.07;;;;;;;0.75;76.75;101188.31;6163302;28;20185;-73
2021/01/19 01:54:37;;;;;;;16.17;10.47;;;;;;;0.80;76.05;101183.34;6145808;28;20863;-73
2021/01/19 01:57:41;;;;;;;22.70;11.60;;;;;;;0.67;77.21;101180.13;6163072;28;20277;-72
2021/01/19 02:00:44;;;;;;;30.83;14.57;;;;;;;0.77;76.24;101180.94;6151866;28;20210;-73
2021/01/19 02:03:48;;;;;;;35.17;16.00;;;;;;;0.82;75.96;101177.84;6154664;28;20560;-72
2021/01/19 02:06:51;;;;;;;46.77;16.90;;;;;;;0.86;75.86;101173.88;6150696;28;20555;-74
2021/01/19 02:10:02;;;;;;;46.83;17.93;;;;;;;0.87;75.51;101165.69;6158307;28;20256;-74
2021/01/19 02:13:13;;;;;;;36.03;16.27;;;;;;;0.75;75.53;101172.19;6158701;28;20523;-73
2021/01/19 02:16:27;;;;;;;34.17;13.47;;;;;;;0.78;75.63;101171.91;6162664;28;20202;-73
2021/01/19 02:20:16;;;;;;;29.30;13.10;;;;;;;0.75;74.73;101169.50;6161208;28;20275;-73
2021/01/19 02:23:32;;;;;;;34.43;14.93;;;;;;;0.69;75.88;101172.81;6156869;28;20255;-72
2021/01/19 02:27:13;;;;;;;29.20;14.40;;;;;;;0.67;76.48;101163.19;6164203;28;20218;-74
2021/01/19 02:30:26;;;;;;;25.80;12.63;;;;;;;0.79;75.08;101162.03;6153656;28;20206;-75
2021/01/19 02:33:36;;;;;;;25.87;14.17;;;;;;;0.80;75.65;101169.91;6155405;28;20557;-73
2021/01/19 02:36:50;;;;;;;29.50;14.33;;;;;;;0.85;75.18;101158.75;6154152;28;20226;-73
2021/01/19 02:39:59;;;;;;;25.27;12.70;;;;;;;0.75;75.50;101156.09;6163546;28;20246;-73
2021/01/19 02:43:09;;;;;;;26.67;12.03;;;;;;;0.73;75.30;101168.81;6144760;28;20655;-73
2021/01/19 02:46:13;;;;;;;24.60;12.50;;;;;;;0.78;75.66;101161.16;6161452;28;20207;-72
2021/01/19 02:49:17;;;;;;;24.17;11.83;;;;;;;0.87;75.23;101154.09;6151533;28;20234;-72
2021/01/19 02:52:22;;;;;;;27.20;12.57;;;;;;;0.74;75.91;101159.78;6152713;28;20235;-73
2021/01/19 02:55:26;;;;;;;29.63;11.33;;;;;;;0.83;76.22;101153.50;6159610;28;20210;-73
2021/01/19 02:58:39;;;;;;;24.37;12.47;;;;;;;0.81;75.36;101147.44;6147340;28;20195;-74
2021/01/19 03:01:49;;;;;;;19.73;10.67;;;;;;;0.71;76.52;101160.06;6162501;28;20285;-73
2021/01/19 03:04:56;;;;;;;21.80;10.77;;;;;;;0.73;76.29;101159.91;6161121;28;20201;-73
2021/01/19 03:08:04;;;;;;;17.77;10.30;;;;;;;0.84;75.37;101149.84;6155437;28;20214;-73
2021/01/19 03:11:11;;;;;;;25.23;11.57;;;;;;;0.71;76.32;101143.09;6163822;28;20255;-72
2021/01/19 03:14:14;;;;;;;21.33;11.03;;;;;;;0.46;77.48;101144.59;6146728;28;20207;-73
2021/01/19 03:17:18;;;;;;;18.83;10.83;;;;;;;0.52;77.96;101144.00;6155026;28;20209;-73
2021/01/19 03:20:25;;;;;;;20.10;10.77;;;;;;;0.66;76.63;101140.84;6159773;28;20194;-72
2021/01/19 03:23:28;;;;;;;18.20;9.20;;;;;;;0.73;76.46;101141.97;6148631;28;20199;-72
2021/01/19 03:26:31;;;;;;;17.87;10.50;;;;;;;0.74;77.03;101132.94;6149222;28;20210;-73
2021/01/19 03:29:36;;;;;;;13.77;8.57;;;;;;;0.78;75.98;101131.63;6145927;28;20714;-72
2021/01/19 03:32:39;;;;;;;15.20;9.00;;;;;;;0.79;76.27;101125.28;6160352;28;20355;-72
2021/01/19 03:35:43;;;;;;;15.23;9.33;;;;;;;0.77;76.71;101115.66;6155861;28;20201;-72
2021/01/19 03:38:46;;;;;;;18.17;9.37;;;;;;;0.68;76.49;101125.44;6159926;28;20284;-72
2021/01/19 03:41:49;;;;;;;17.90;9.47;;;;;;;0.77;76.53;101126.41;6153946;28;20323;-73
2021/01/19 03:44:53;;;;;;;19.70;10.20;;;;;;;0.84;77.16;101116.75;6154653;28;20198;-73
2021/01/19 03:47:57;;;;;;;16.53;9.63;;;;;;;0.64;77.38;101121.38;6158033;28;20218;-72
2021/01/19 03:51:01;;;;;;;13.90;9.23;;;;;;;0.64;77.73;101110.63;6154660;28;20353;-72
2021/01/19 03:54:05;;;;;;;21.90;10.07;;;;;;;0.76;77.62;101103.22;6160004;28;20188;-73
2021/01/19 03:57:09;;;;;;;18.53;9.77;;;;;;;0.85;76.42;101118.47;6165035;28;20284;-73
2021/01/19 04:00:14;;;;;;;13.27;8.77;;;;;;;0.86;76.24;101104.03;6160265;28;20299;-73
2021/01/19 04:03:20;;;;;;;16.33;9.23;;;;;;;0.89;76.52;101104.59;6156527;28;20641;-74
2021/01/19 04:06:25;;;;;;;15.73;9.43;;;;;;;0.93;76.53;101100.59;6145521;28;20563;-73
2021/01/19 04:09:29;;;;;;;15.60;8.60;;;;;;;0.89;76.45;101104.59;6154771;28;20356;-73
2021/01/19 04:12:33;;;;;;;19.30;9.37;;;;;;;0.87;76.26;101090.47;6155372;28;20213;-73
2021/01/19 04:15:36;;;;;;;15.53;9.23;;;;;;;0.91;76.58;101102.59;6151255;28;20203;-72
2021/01/19 04:18:39;;;;;;;19.40;10.17;;;;;;;0.91;76.09;101086.47;6154185;28;20284;-73
2021/01/19 04:21:43;;;;;;;16.33;10.17;;;;;;;0.86;76.44;101083.38;6150350;28;20193;-72
2021/01/19 04:24:47;;;;;;;18.13;9.53;;;;;;;0.87;76.38;101084.25;6153148;28;20496;-72
2021/01/19 04:27:50;;;;;;;17.33;9.97;;;;;;;0.91;76.42;101086.47;6149998;28;20301;-74
2021/01/19 04:30:54;;;;;;;18.53;10.37;;;;;;;0.92;76.36;101090.00;6161091;28;20595;-72
2021/01/19 04:33:57;;;;;;;26.23;10.10;;;;;;;0.89;76.46;101088.47;6162150;28;20188;-73
2021/01/19 04:37:01;;;;;;;23.57;10.20;;;;;;;0.92;76.44;101069.38;6156849;28;20625;-73
2021/01/19 04:40:06;;;;;;;19.80;10.93;;;;;;;0.89;76.34;101074.19;6153269;28;20330;-74
2021/01/19 04:43:12;;;;;;;17.77;9.90;;;;;;;0.88;76.42;101081.41;6133140;28;20656;-73
2021/01/19 04:46:19;;;;;;;14.17;8.87;;;;;;;0.83;76.80;101083.69;6152784;28;20385;-73
2021/01/19 04:49:24;;;;;;;13.13;8.60;;;;;;;0.85;76.64;101081.69;6148037;28;20445;-73
2021/01/19 04:52:30;;;;;;;13.47;7.97;;;;;;;0.89;76.13;101077.72;6162306;28;20192;-74
2021/01/19 04:55:37;;;;;;;12.53;7.57;;;;;;;0.88;76.05;101073.34;6156034;28;20249;-73
2021/01/19 04:58:43;;;;;;;11.53;6.97;;;;;;;0.85;76.21;101070.94;6147363;28;20203;-73
2021/01/19 05:02:35;;;;;;;12.17;7.20;;;;;;;0.87;76.21;101068.97;6163453;28;20592;-73
2021/01/19 05:06:15;;;;;;;9.37;6.60;;;;;;;0.79;76.23;101068.00;6161556;28;20198;-73
2021/01/19 05:09:21;;;;;;;9.50;6.40;;;;;;;0.81;76.31;101066.88;6156885;28;20218;-72
2021/01/19 05:12:33;;;;;;;7.03;6.30;;;;;;;0.85;76.28;101060.19;6160630;28;20671;-72
2021/01/19 05:15:43;;;;;;;7.37;6.23;;;;;;;0.88;75.88;101059.06;6152003;28;20206;-72
2021/01/19 05:18:47;;;;;;;9.90;6.30;;;;;;;0.67;76.40;101064.66;6153756;28;20230;-74
2021/01/19 05:21:54;;;;;;;8.53;6.17;;;;;;;0.76;76.50;101071.00;6166596;28;20272;-74
2021/01/19 05:24:58;;;;;;;8.30;6.50;;;;;;;0.73;76.55;101066.75;6155596;28;20198;-73
2021/01/19 05:28:02;;;;;;;10.27;6.00;;;;;;;0.70;76.51;101061.69;6158941;28;20217;-73
2021/01/19 05:31:07;;;;;;;7.27;5.43;;;;;;;0.69;76.62;101068.06;6156725;28;20292;-73
2021/01/19 05:34:12;;;;;;;6.17;5.33;;;;;;;0.70;76.45;101064.38;6163512;28;20222;-73
2021/01/19 05:37:24;;;;;;;9.00;5.83;;;;;;;0.66;76.48;101052.25;6157401;28;20217;-74
2021/01/19 05:40:29;;;;;;;6.50;5.43;;;;;;;0.67;76.92;101061.97;6158822;28;20248;-73
2021/01/19 05:43:32;;;;;;;9.63;5.77;;;;;;;0.60;77.40;101060.88;6158417;28;20650;-71
2021/01/19 05:46:40;;;;;;;8.47;6.00;;;;;;;0.64;77.55;101056.94;6153004;28;20202;-72
2021/01/19 05:49:43;;;;;;;8.97;5.87;;;;;;;0.66;77.99;101064.81;6151445;28;20595;-72
2021/01/19 05:52:48;;;;;;;6.20;5.60;;;;;;;0.47;78.65;101076.47;6146374;28;20197;-73
2021/01/19 05:56:01;;;;;;;9.33;5.80;;;;;;;0.60;77.85;101051.00;6155362;28;20214;-73
2021/01/19 05:59:05;;;;;;;7.23;6.10;;;;;;;0.66;77.55;101051.41;6149581;28;20576;-73
2021/01/19 06:02:10;;;;;;;6.77;5.50;;;;;;;0.66;78.03;101054.94;6157913;28;20202;-73
2021/01/19 06:05:17;;;;;;;6.20;5.70;;;;;;;0.66;77.85;101060.31;6161609;28;20202;-73
2021/01/19 06:08:23;;;;;;;5.93;5.33;;;;;;;0.59;78.58;101051.16;6156123;28;20566;-73
2021/01/19 06:11:28;;;;;;;6.83;6.17;;;;;;;0.57;78.37;101055.81;6155369;28;20194;-72
2021/01/19 06:14:32;;;;;;;8.13;5.70;;;;;;;0.50;78.82;101044.81;6149049;28;20674;-73
2021/01/19 06:17:36;;;;;;;8.73;6.60;;;;;;;0.58;78.64;101046.75;6158622;28;20297;-74
2021/01/19 06:20:40;;;;;;;7.67;6.07;;;;;;;0.57;79.14;101039.69;6152349;28;20207;-73
2021/01/19 06:23:46;;;;;;;9.50;5.80;;;;;;;0.65;78.59;101042.47;6154876;28;20197;-73
2021/01/19 06:26:51;;;;;;;6.23;5.63;;;;;;;0.70;78.21;101045.56;6152523;28;20220;-73
2021/01/19 06:30:11;;;;;;;6.97;5.70;;;;;;;0.72;78.02;101043.56;6154000;28;20232;-74
2021/01/19 06:33:21;;;;;;;8.03;6.10;;;;;;;0.59;78.89;101035.03;6159035;28;20202;-74
2021/01/19 06:36:35;;;;;;;7.40;5.73;;;;;;;0.62;79.28;101037.41;6152048;28;20206;-77
2021/01/19 06:39:41;;;;;;;5.83;5.23;;;;;;;0.68;78.90;101042.19;6149629;28;20250;-73
2021/01/19 06:42:55;;;;;;;6.87;5.83;;;;;;;0.67;78.91;101040.50;6159723;28;20273;-73
2021/01/19 06:46:01;;;;;;;5.43;4.93;;;;;;;0.60;79.41;101044.78;6157906;28;20206;-73
2021/01/19 06:49:07;;;;;;;5.80;5.37;;;;;;;0.40;80.65;101048.53;6153692;28;20276;-74
2021/01/19 06:52:12;;;;;;;5.73;5.13;;;;;;;0.54;80.28;101039.97;6150724;28;20204;-74
2021/01/19 06:55:22;;;;;;;6.03;5.23;;;;;;;0.74;78.98;101036.25;6153997;28;20214;-72
2021/01/19 06:58:47;;;;;;;5.70;5.10;;;;;;;0.75;79.42;101032.53;6156691;28;20217;-76
2021/01/19 07:01:57;;;;;;;5.37;4.90;;;;;;;0.92;78.54;101034.44;6151838;28;20238;-73
2021/01/19 07:05:10;;;;;;;5.67;5.13;;;;;;;0.77;79.69;101035.91;6153013;28;20231;-73
2021/01/19 07:08:40;;;;;;;7.57;5.30;;;;;;;0.79;79.90;101033.94;6155022;28;20289;-73
2021/01/19 07:12:08;;;;;;;5.23;4.73;;;;;;;0.76;80.15;101033.41;6149973;28;20617;-72
2021/01/19 07:15:20;;;;;;;6.20;5.63;;;;;;;0.82;79.43;101030.97;6148543;28;20508;-74
2021/01/19 07:18:32;;;;;;;5.17;4.67;;;;;;;0.69;80.39;101033.16;6155333;28;20213;-74
2021/01/19 07:22:04;;;;;;;5.27;4.77;;;;;;;0.71;80.19;101031.16;6154366;28;20306;-75
2021/01/19 07:25:09;;;;;;;4.80;4.40;;;;;;;0.61;80.65;101025.00;6157335;28;20253;-74
2021/01/19 07:28:13;;;;;;;5.13;4.67;;;;;;;0.69;81.15;101022.41;6154187;28;20229;-73
2021/01/19 07:31:19;;;;;;;7.23;4.97;;;;;;;0.70;80.66;101017.88;6151991;28;20208;-72
2021/01/19 07:34:23;;;;;;;5.30;4.80;;;;;;;0.63;80.98;101012.25;6136413;28;20245;-73
2021/01/19 07:37:30;;;;;;;5.50;4.97;;;;;;;0.84;80.25;101014.69;6154791;28;20259;-76
2021/01/19 07:40:44;;;;;;;5.10;4.70;;;;;;;0.80;80.03;101019.50;6157811;28;20237;-73
2021/01/19 07:43:47;;;;;;;5.50;4.90;;;;;;;0.97;79.70;101021.41;6156700;28;20209;-74
2021/01/19 07:47:07;;;;;;;5.50;4.93;;;;;;;1.02;79.28;101013.75;6160319;28;20697;-75
2021/01/19 07:50:16;;;;;;;5.87;4.40;;;;;;;0.85;79.96;101011.84;6163484;28;20691;-76
2021/01/19 07:53:19;;;;;;;5.83;5.33;;;;;;;0.92;80.27;101018.31;6161645;28;20213;-74
2021/01/19 07:56:23;;;;;;;4.87;4.47;;;;;;;0.82;80.94;101001.44;6162320;28;20498;-73
2021/01/19 07:59:33;;;;;;;6.43;5.10;;;;;;;0.89;81.22;101007.88;6163271;28;20206;-75
2021/01/19 08:02:38;;;;;;;8.20;5.23;;;;;;;0.83;81.27;101021.06;6152145;28;20253;-73
2021/01/19 08:05:42;;;;;;;5.67;5.17;;;;;;;0.98;80.16;101004.28;6159541;28;20253;-73
2021/01/19 08:08:45;;;;;;;6.00;5.40;;;;;;;1.05;80.52;101002.66;6158579;28;20229;-72
2021/01/19 08:12:04;;;;;;;6.17;5.57;;;;;;;1.03;80.73;101003.81;6151987;28;23078;-73
2021/01/19 08:15:10;;;;;;;5.70;5.07;;;;;;;1.17;80.09;101006.84;6155652;28;20189;-74
2021/01/19 08:18:18;;;;;;;5.83;5.23;;;;;;;1.22;80.06;101004.53;6159571;28;20602;-71
2021/01/19 08:21:36;;;;;;;4.90;4.50;;;;;;;1.21;80.25;101002.84;6160193;28;20210;-73
2021/01/19 08:24:41;;;;;;;6.13;5.43;;;;;;;1.20;80.36;101005.69;6155849;28;20194;-73
2021/01/19 08:27:45;;;;;;;5.70;5.20;;;;;;;1.17;81.00;101006.84;6160844;28;20255;-73
2021/01/19 08:30:51;;;;;;;5.80;5.17;;;;;;;1.20;81.18;101006.53;6156556;28;20222;-73
2021/01/19 08:33:59;;;;;;;5.80;5.30;;;;;;;1.22;81.27;100993.78;6162381;28;20577;-73
2021/01/19 08:37:03;;;;;;;5.90;5.07;;;;;;;1.16;81.23;100999.75;6164562;28;20225;-73
2021/01/19 08:40:20;;;;;;;7.23;5.50;;;;;;;1.07;82.19;101000.69;6158671;28;20230;-73
2021/01/19 08:43:23;;;;;;;6.97;5.33;;;;;;;1.06;82.26;101003.50;6160145;28;20198;-75
2021/01/19 08:46:29;;;;;;;7.17;5.47;;;;;;;1.04;83.23;101011.75;6161271;28;20202;-74
2021/01/19 08:49:35;;;;;;;7.03;5.33;;;;;;;1.17;82.80;101006.84;6158562;28;20223;-73
2021/01/19 08:52:39;;;;;;;6.37;5.73;;;;;;;1.13;83.35;101013.50;6171231;28;20323;-73
2021/01/19 08:55:43;;;;;;;6.17;5.57;;;;;;;1.17;83.38;100996.09;6154846;28;20214;-73
2021/01/19 08:58:47;;;;;;;6.33;5.70;;;;;;;1.14;83.57;101015.22;6152364;28;20664;-74
2021/01/19 09:01:51;;;;;;;7.93;6.10;;;;;;;1.09;84.30;101004.06;6162064;28;20206;-73
2021/01/19 09:04:55;;;;;;;6.30;5.70;;;;;;;1.11;83.63;101007.44;6164481;28;20217;-73
2021/01/19 09:07:59;;;;;;;8.53;6.30;;;;;;;1.12;83.76;101014.53;6154084;28;20246;-75
2021/01/19 09:11:04;;;;;;;9.30;6.67;;;;;;;1.27;83.37;101002.25;6156641;28;20221;-73
2021/01/19 09:14:24;;;;;;;6.63;5.40;;;;;;;1.35;83.09;101003.31;6175503;28;20206;-73
2021/01/19 09:17:28;;;;;;;6.23;5.67;;;;;;;1.47;82.85;100996.69;6184626;28;20676;-73
2021/01/19 09:20:33;;;;;;;6.67;5.50;;;;;;;1.30;84.02;100997.53;6153404;28;20237;-73
2021/01/19 09:23:37;;;;;;;7.67;6.33;;;;;;;1.42;83.39;100990.94;6158987;28;20649;-75
2021/01/19 09:26:56;;;;;;;7.30;5.60;;;;;;;1.47;83.82;100996.69;6158807;28;20207;-72
2021/01/19 09:30:07;;;;;;;9.27;6.37;;;;;;;1.47;83.95;100985.94;6151722;28;20221;-74
2021/01/19 09:33:12;;;;;;;9.00;5.87;;;;;;;1.55;83.60;100980.63;6153734;28;20195;-74
2021/01/19 09:36:18;;;;;;;9.57;6.63;;;;;;;1.48;84.51;100995.69;6161994;28;20206;-74
2021/01/19 09:39:25;;;;;;;6.80;5.93;;;;;;;1.61;84.13;100974.63;6154670;28;20294;-74
2021/01/19 09:42:28;;;;;;;9.40;5.93;;;;;;;1.70;83.69;100982.59;6154485;28;20215;-72
2021/01/19 09:45:33;;;;;;;7.83;6.40;;;;;;;1.73;84.45;100976.06;6153231;28;20211;-71
2021/01/19 09:48:46;;;;;;;6.40;5.77;;;;;;;1.69;84.78;100980.09;6165001;28;20642;-72
2021/01/19 09:51:51;;;;;;;10.33;6.87;;;;;;;1.66;84.93;100969.63;6175757;28;20614;-72
2021/01/19 09:55:06;;;;;;;10.83;7.13;;;;;;;1.80;84.36;100972.59;6167266;28;20198;-72
2021/01/19 09:58:10;;;;;;;10.17;6.67;;;;;;;1.88;84.42;100969.13;6158261;28;20203;-72
2021/01/19 10:01:21;;;;;;;8.90;6.70;;;;;;;1.82;84.67;100969.75;6153944;28;20350;-72
2021/01/19 10:04:26;;;;;;;13.80;6.60;;;;;;;1.86;84.70;100976.50;6156314;28;20216;-73
2021/01/19 10:07:31;;;;;;;8.40;6.27;;;;;;;1.82;84.77;100977.84;6155284;28;20645;-74
2021/01/19 10:10:36;;;;;;;9.30;6.53;;;;;;;1.81;85.34;100976.13;6157314;28;20218;-74
2021/01/19 10:13:39;;;;;;;14.87;7.27;;;;;;;1.76;85.26;100970.38;6152461;28;20191;-72
2021/01/19 10:16:46;;;;;;;14.13;7.00;;;;;;;1.69;85.84;100972.00;6161859;28;20207;-72
2021/01/19 10:19:49;;;;;;;7.67;6.57;;;;;;;1.61;87.04;100972.81;6161535;28;20631;-72
2021/01/19 10:22:57;;;;;;;13.97;7.10;;;;;;;1.58;87.60;100972.25;6164469;28;20703;-75
2021/01/19 10:26:09;;;;;;;10.53;6.47;;;;;;;1.74;87.23;100967.00;6153085;28;20204;-73
2021/01/19 10:29:13;;;;;;;16.23;7.10;;;;;;;1.73;87.13;100955.41;6158756;28;20559;-73
2021/01/19 10:32:17;;;;;;;11.97;7.13;;;;;;;1.82;87.33;100953.63;6162355;28;20289;-73
2021/01/19 10:35:26;;;;;;;10.07;6.97;;;;;;;1.85;87.64;100950.59;6147450;28;20441;-73
2021/01/19 10:38:30;;;;;;;8.50;6.87;;;;;;;1.88;87.73;100947.59;6164246;28;20569;-72
2021/01/19 10:41:34;;;;;;;12.70;6.80;;;;;;;1.86;88.19;100938.84;6152489;28;20246;-75
2021/01/19 10:44:41;;;;;;;16.93;6.93;;;;;;;1.76;89.14;100938.09;6155990;28;20616;-74
2021/01/19 10:47:45;;;;;;;10.77;6.67;;;;;;;1.76;89.53;100928.19;6162726;28;20198;-73
2021/01/19 10:50:49;;;;;;;11.77;6.67;;;;;;;1.88;89.44;100931.44;6166593;28;20288;-73
2021/01/19 10:54:13;;;;;;;9.90;6.87;;;;;;;1.98;88.99;100932.19;6160382;28;20212;-71
2021/01/19 10:57:16;;;;;;;12.37;6.83;;;;;;;1.93;89.05;100923.75;6156960;28;20208;-72
2021/01/19 11:00:20;;;;;;;8.47;6.50;;;;;;;2.03;88.71;100929.84;6153050;28;20358;-74
2021/01/19 11:03:24;;;;;;;11.70;6.73;;;;;;;1.89;89.02;100933.16;6165104;28;20192;-74
2021/01/19 11:06:32;;;;;;;8.33;7.00;;;;;;;1.92;88.69;100922.06;6157903;28;20345;-73
2021/01/19 11:09:36;;;;;;;8.70;6.53;;;;;;;2.01;89.11;100926.47;6162775;28;20187;-73
2021/01/19 11:12:39;;;;;;;9.97;7.13;;;;;;;2.00;88.28;100924.81;6165406;28;20204;-73
2021/01/19 11:15:42;;;;;;;12.50;7.30;;;;;;;2.00;89.06;100924.81;6163792;28;20209;-73
2021/01/19 11:18:45;;;;;;;12.77;7.03;;;;;;;1.99;89.12;100928.50;6164879;28;20324;-73
2021/01/19 11:21:49;;;;;;;16.17;7.67;;;;;;;1.75;90.81;100920.25;6159503;28;20209;-73
2021/01/19 11:24:53;;;;;;;10.00;6.40;;;;;;;1.96;89.95;100917.19;6164981;28;20703;-74
2021/01/19 11:27:56;;;;;;;9.10;6.90;;;;;;;2.02;89.18;100913.88;6164044;28;20225;-73
2021/01/19 11:30:59;;;;;;;12.40;7.10;;;;;;;2.05;89.18;100906.34;6155457;28;20230;-72
2021/01/19 11:34:05;;;;;;;9.77;7.00;;;;;;;2.03;89.14;100919.09;6153972;28;20708;-73
2021/01/19 11:37:08;;;;;;;9.77;6.63;;;;;;;1.99;89.56;100909.66;6155008;28;20218;-72
2021/01/19 11:40:13;;;;;;;11.37;6.87;;;;;;;1.97;89.07;100906.28;6158488;28;20325;-73
2021/01/19 11:43:17;;;;;;;9.13;6.43;;;;;;;1.94;89.20;100903.91;6157763;28;20203;-73
2021/01/19 11:46:22;;;;;;;13.03;7.37;;;;;;;2.06;89.47;100907.16;6156031;28;20199;-72
2021/01/19 11:49:26;;;;;;;15.20;8.33;;;;;;;2.09;88.31;100902.31;6138350;28;20206;-74
2021/01/19 11:52:29;;;;;;;13.87;7.87;;;;;;;2.06;87.83;100886.47;6162402;28;20237;-73
2021/01/19 11:55:33;;;;;;;11.47;7.43;;;;;;;2.13;87.63;100887.50;6151638;28;20204;-74
2021/01/19 11:58:36;;;;;;;17.77;7.20;;;;;;;2.19;86.90;100886.88;6171945;28;20208;-73
2021/01/19 12:01:40;;;;;;;15.70;7.83;;;;;;;2.16;86.55;100886.34;6182585;28;20285;-73
2021/01/19 12:04:45;;;;;;;14.67;7.97;;;;;;;2.11;87.31;100878.75;6163087;28;20209;-73
2021/01/19 12:07:48;;;;;;;10.33;6.97;;;;;;;2.13;86.92;100868.66;6173671;28;20199;-72
2021/01/19 12:10:53;;;;;;;14.77;8.00;;;;;;;2.15;86.20;100869.38;6161008;28;20216;-72
2021/01/19 12:13:56;;;;;;;16.50;8.53;;;;;;;2.09;86.67;100875.41;6169447;28;20655;-73
2021/01/19 12:16:59;;;;;;;17.97;9.27;;;;;;;2.15;86.08;100869.38;6172526;28;20642;-73
2021/01/19 12:20:05;;;;;;;21.43;9.40;;;;;;;2.23;85.62;100855.09;6165702;28;20231;-73
2021/01/19 12:23:08;;;;;;;17.40;8.83;;;;;;;2.29;84.85;100857.97;6165784;28;20202;-73
2021/01/19 12:26:13;;;;;;;21.50;9.37;;;;;;;2.29;85.62;100860.66;6163527;28;20334;-73
2021/01/19 12:29:17;;;;;;;17.23;9.30;;;;;;;2.34;84.68;100852.94;6170237;28;20206;-73
2021/01/19 12:32:21;;;;;;;16.77;8.70;;;;;;;2.34;84.33;100847.56;6169240;28;20212;-72
2021/01/19 12:35:25;;;;;;;22.33;9.53;;;;;;;2.29;84.74;100849.91;6163933;28;20202;-74
2021/01/19 12:38:28;;;;;;;18.43;9.47;;;;;;;2.23;84.29;100849.72;6171249;28;20812;-73
2021/01/19 12:41:33;;;;;;;17.53;8.93;;;;;;;2.33;84.74;100848.59;6159227;28;20285;-73
2021/01/19 12:44:36;;;;;;;21.83;9.90;;;;;;;2.38;83.90;100848.94;6156578;28;20595;-73
2021/01/19 12:47:40;;;;;;;19.37;9.13;;;;;;;2.38;83.70;100846.25;6171994;28;20199;-72
2021/01/19 12:50:43;;;;;;;20.50;9.37;;;;;;;2.45;83.77;100849.94;6158204;28;20883;-74
2021/01/19 12:53:47;;;;;;;20.37;10.50;;;;;;;2.53;82.72;100841.91;6150492;28;20344;-73
2021/01/19 12:56:52;;;;;;;23.40;10.43;;;;;;;2.65;82.07;100839.72;6163624;28;20647;-74
2021/01/19 12:59:55;;;;;;;24.27;10.00;;;;;;;2.72;81.28;100845.31;6160936;28;20206;-71
2021/01/19 13:02:58;;;;;;;22.50;10.63;;;;;;;2.66;81.39;100845.94;6158112;28;20585;-72
2021/01/19 13:06:03;;;;;;;19.10;10.00;;;;;;;2.70;81.45;100841.91;6153775;28;20189;-73
2021/01/19 13:09:06;;;;;;;20.10;10.33;;;;;;;2.75;80.55;100844.97;6157148;28;20373;-72
2021/01/19 13:12:11;;;;;;;29.20;11.10;;;;;;;2.55;81.87;100839.03;6162760;28;20220;-72
2021/01/19 13:15:17;;;;;;;24.77;11.63;;;;;;;2.58;81.29;100837.84;6183091;28;20720;-73
2021/01/19 13:18:20;;;;;;;22.00;10.97;;;;;;;2.56;80.85;100827.25;6156387;28;20217;-72
2021/01/19 13:21:25;;;;;;;19.50;11.27;;;;;;;2.38;81.27;100837.31;6167558;28;20204;-73
2021/01/19 13:24:28;;;;;;;20.93;11.40;;;;;;;2.39;81.62;100837.13;6162355;28;20201;-72
2021/01/19 13:27:33;;;;;;;27.07;11.30;;;;;;;2.22;81.95;100838.09;6163700;28;21088;-72
2021/01/19 13:30:38;;;;;;;22.93;11.03;;;;;;;2.19;81.15;100833.03;6168484;28;20521;-73
2021/01/19 13:33:41;;;;;;;30.50;11.60;;;;;;;2.24;80.71;100836.09;6166909;28;20298;-72
2021/01/19 13:36:45;;;;;;;28.43;12.10;;;;;;;2.27;80.15;100834.91;6158261;28;20239;-72
2021/01/19 13:39:48;;;;;;;26.60;12.03;;;;;;;2.28;80.64;100836.63;6159764;28;20589;-71
2021/01/19 13:42:53;;;;;;;26.03;11.50;;;;;;;2.28;79.74;100833.91;6169412;28;20202;-72
2021/01/19 13:45:56;;;;;;;22.47;11.03;;;;;;;2.42;79.78;100850.28;6159205;28;20247;-72
2021/01/19 13:49:00;;;;;;;19.53;10.33;;;;;;;2.20;79.89;100834.75;6145936;28;20271;-72
2021/01/19 13:52:04;;;;;;;24.80;10.57;;;;;;;2.27;79.41;100840.28;6157920;28;20225;-73
2021/01/19 13:55:08;;;;;;;22.20;10.50;;;;;;;2.23;78.84;100834.41;6161969;28;20303;-73
2021/01/19 13:58:13;;;;;;;27.23;11.50;;;;;;;2.18;79.03;100841.28;6166115;28;20190;-73
2021/01/19 14:01:17;;;;;;;26.90;11.33;;;;;;;2.11;79.25;100833.00;6161499;28;20216;-73
2021/01/19 14:04:21;;;;;;;21.77;10.63;;;;;;;2.10;79.80;100834.03;6148964;28;20612;-74
2021/01/19 14:07:24;;;;;;;21.47;10.53;;;;;;;2.03;78.03;100832.16;6159141;28;20558;-74
2021/01/19 14:10:27;;;;;;;19.17;10.23;;;;;;;2.12;77.80;100825.78;6160817;28;20195;-73
2021/01/19 14:13:32;;;;;;;21.53;10.80;;;;;;;2.19;77.45;100833.03;6161313;28;20572;-73
2021/01/19 14:16:35;;;;;;;18.03;9.13;;;;;;;2.12;76.67;100826.63;6144071;28;20203;-73
2021/01/19 14:19:39;;;;;;;22.23;10.03;;;;;;;1.98;76.78;100829.94;6166470;28;20205;-73
2021/01/19 14:22:42;;;;;;;19.23;9.07;;;;;;;2.05;76.66;100820.22;6165620;28;20205;-73
2021/01/19 14:25:46;;;;;;;16.50;9.70;;;;;;;1.94;77.03;100828.56;6169972;28;20531;-74
2021/01/19 14:28:50;;;;;;;18.00;10.03;;;;;;;2.00;76.89;100830.63;6166023;28;20476;-73